Time;durP1;ratioP1;P1;durP2;ratioP2;P2;SDS_P1;SDS_P2;PMS_P1;PMS_P2;Temp;Humidity;BMP_temperature;BMP_pressure;BME280_temperature;BME280_humidity;BME280_pressure;Samples;Min_cycle;Max_cycle;Signal;HPM_P1;HPM_P2
2022/12/09 00:00:50;;;;;;;49.40;27.58;;;-1.30;99.90;;;;;;5036198;28;20053;-71
2022/12/09 00:03:16;;;;;;;56.88;27.60;;;-1.30;99.90;;;;;;5035773;28;20057;-71
2022/12/09 00:05:41;;;;;;;52.25;27.00;;;-1.30;99.90;;;;;;5037303;28;20022;-71
2022/12/09 00:08:07;;;;;;;58.05;26.15;;;-1.40;99.90;;;;;;5036811;28;20076;-71
2022/12/09 00:10:32;;;;;;;53.60;25.13;;;-1.40;99.90;;;;;;5036079;28;20385;-71
2022/12/09 00:12:58;;;;;;;56.92;27.63;;;-1.50;99.90;;;;;;5036265;28;20461;-71
2022/12/09 00:15:23;;;;;;;50.47;25.17;;;-1.50;99.90;;;;;;5035438;28;20029;-71
2022/12/09 00:17:49;;;;;;;49.67;24.13;;;-1.60;99.90;;;;;;5036190;28;20022;-71
2022/12/09 00:20:15;;;;;;;56.35;25.83;;;-1.70;99.90;;;;;;5035876;28;20493;-71
2022/12/09 00:22:40;;;;;;;44.38;22.50;;;-1.90;99.90;;;;;;5035972;28;20479;-71
2022/12/09 00:25:06;;;;;;;49.80;22.17;;;-2.10;99.90;;;;;;5036142;28;20468;-71
2022/12/09 00:27:32;;;;;;;44.35;21.90;;;-2.20;99.90;;;;;;5036055;28;20164;-71
2022/12/09 00:29:57;;;;;;;44.38;22.27;;;-2.30;99.90;;;;;;5017430;28;20124;-71
2022/12/09 00:32:23;;;;;;;44.40;22.33;;;-2.40;99.90;;;;;;5035776;28;20036;-71
2022/12/09 00:34:48;;;;;;;44.33;22.00;;;-2.50;99.90;;;;;;5017839;28;20048;-71
2022/12/09 00:37:14;;;;;;;45.95;21.83;;;-2.60;99.90;;;;;;5035695;28;20428;-71
2022/12/09 00:39:40;;;;;;;40.08;22.02;;;-2.70;99.90;;;;;;5035747;28;20029;-71
2022/12/09 00:42:05;;;;;;;47.85;23.80;;;-2.70;99.90;;;;;;5035601;28;20033;-71
2022/12/09 00:44:31;;;;;;;45.25;22.42;;;-2.70;99.90;;;;;;5035018;28;20030;-71
2022/12/09 00:46:56;;;;;;;45.97;23.67;;;-2.70;99.90;;;;;;5035507;28;20033;-71
2022/12/09 00:49:22;;;;;;;42.58;22.02;;;-2.60;99.90;;;;;;5035375;28;20083;-71
2022/12/09 00:51:47;;;;;;;54.15;25.48;;;-2.70;99.90;;;;;;5035370;28;20080;-71
2022/12/09 00:54:13;;;;;;;64.13;28.75;;;-2.60;99.90;;;;;;5035541;28;20036;-71
2022/12/09 00:56:38;;;;;;;56.15;25.65;;;-2.50;99.90;;;;;;5034781;28;20013;-71
2022/12/09 00:59:04;;;;;;;55.85;27.42;;;-2.40;99.90;;;;;;5035777;28;20022;-71
2022/12/09 01:01:29;;;;;;;53.78;27.58;;;-2.30;99.90;;;;;;5035147;28;20037;-71
2022/12/09 01:03:55;;;;;;;61.95;28.35;;;-2.30;99.90;;;;;;5034587;28;20030;-71
2022/12/09 01:06:23;;;;;;;62.33;26.83;;;-2.20;99.90;;;;;;5034618;28;20026;-71
2022/12/09 01:08:49;;;;;;;58.97;27.17;;;-2.20;99.90;;;;;;5035061;28;20061;-71
2022/12/09 01:11:20;;;;;;;61.85;26.42;;;-2.20;99.90;;;;;;5034902;28;20037;-71
2022/12/09 01:13:46;;;;;;;53.55;25.92;;;-2.10;99.90;;;;;;5035071;28;20025;-71
2022/12/09 01:16:18;;;;;;;60.22;27.52;;;-2.20;99.90;;;;;;5034861;28;20021;-71
2022/12/09 01:18:44;;;;;;;60.05;26.63;;;-2.10;99.90;;;;;;5034397;28;20022;-71
2022/12/09 01:21:10;;;;;;;68.93;29.17;;;-2.00;99.90;;;;;;5034812;28;20084;-71
2022/12/09 01:23:36;;;;;;;68.97;29.85;;;-1.90;99.90;;;;;;5035075;28;20068;-71
2022/12/09 01:26:03;;;;;;;74.97;30.73;;;-1.70;99.90;;;;;;5034806;28;20033;-71
2022/12/09 01:28:29;;;;;;;65.57;29.63;;;-1.60;99.90;;;;;;5034654;28;20017;-71
2022/12/09 01:30:55;;;;;;;65.22;30.73;;;-1.50;99.90;;;;;;5034107;28;20030;-71
2022/12/09 01:33:20;;;;;;;69.60;31.27;;;-1.50;99.90;;;;;;5034430;28;20021;-71
2022/12/09 01:35:46;;;;;;;68.25;32.58;;;-1.30;99.90;;;;;;5021377;28;20049;-71
2022/12/09 01:38:12;;;;;;;72.80;30.55;;;-1.30;99.90;;;;;;5027049;28;20507;-71
2022/12/09 01:40:44;;;;;;;81.47;32.42;;;-1.20;99.90;;;;;;5034459;28;20096;-71
2022/12/09 01:43:18;;;;;;;94.60;33.67;;;-1.10;99.90;;;;;;5033664;28;20025;-71
2022/12/09 01:45:44;;;;;;;81.85;32.05;;;-1.10;99.90;;;;;;5034320;28;20029;-71
2022/12/09 01:48:15;;;;;;;80.00;33.92;;;-1.00;99.90;;;;;;5034317;28;20389;-71
2022/12/09 01:50:45;;;;;;;84.28;33.40;;;-1.00;99.90;;;;;;5034230;28;20022;-71
2022/12/09 01:53:13;;;;;;;82.78;33.10;;;-0.90;99.90;;;;;;5022046;28;20024;-71
2022/12/09 01:55:40;;;;;;;80.32;33.70;;;-0.90;99.90;;;;;;5032469;28;20025;-71
2022/12/09 01:58:06;;;;;;;70.25;31.73;;;-0.90;99.90;;;;;;5014437;28;20116;-71
2022/12/09 02:00:31;;;;;;;86.95;34.67;;;-0.80;99.90;;;;;;5016837;28;20061;-71
2022/12/09 02:02:59;;;;;;;82.03;33.85;;;-0.80;99.90;;;;;;5033909;28;20104;-71
2022/12/09 02:05:25;;;;;;;81.15;33.63;;;-0.90;99.90;;;;;;5033963;28;20033;-71
2022/12/09 02:07:51;;;;;;;80.93;36.20;;;-1.00;99.90;;;;;;5033788;28;20108;-71
2022/12/09 02:10:17;;;;;;;81.30;35.97;;;-1.00;99.90;;;;;;5033849;28;20110;-71
2022/12/09 02:13:10;;;;;;;79.57;36.53;;;-1.10;99.90;;;;;;5033727;28;20033;-71
2022/12/09 02:15:47;;;;;;;83.78;32.63;;;-1.10;99.90;;;;;;5015433;28;20083;-71
2022/12/09 02:18:20;;;;;;;76.90;34.47;;;-1.00;99.90;;;;;;5033332;28;20018;-71
2022/12/09 02:20:59;;;;;;;95.77;36.63;;;-1.00;99.90;;;;;;5033733;28;20040;-71
2022/12/09 02:23:54;;;;;;;87.30;32.58;;;-1.00;99.90;;;;;;5033849;28;20148;-71
2022/12/09 02:26:39;;;;;;;79.80;32.88;;;-1.00;99.90;;;;;;5016030;28;20021;-71
2022/12/09 02:29:40;;;;;;;76.97;33.42;;;-1.00;99.90;;;;;;5030498;28;20029;-71
2022/12/09 02:32:40;;;;;;;74.22;33.05;;;-1.00;99.90;;;;;;5015940;28;20114;-71
2022/12/09 02:35:12;;;;;;;88.43;35.28;;;-0.90;99.90;;;;;;5019776;28;20045;-71
2022/12/09 02:37:43;;;;;;;103.78;37.50;;;-0.80;99.90;;;;;;5033879;28;20099;-71
2022/12/09 02:40:18;;;;;;;99.95;36.30;;;-0.70;99.90;;;;;;5032791;28;20021;-71
2022/12/09 02:42:47;;;;;;;88.13;34.20;;;-0.60;99.90;;;;;;5033661;28;20114;-71
2022/12/09 02:45:15;;;;;;;88.38;34.30;;;-0.60;99.90;;;;;;5033384;28;20101;-71
2022/12/09 02:47:46;;;;;;;92.40;35.30;;;-0.50;99.90;;;;;;5033754;28;20210;-71
2022/12/09 02:50:14;;;;;;;91.82;34.45;;;-0.50;99.90;;;;;;5033995;28;20029;-71
2022/12/09 02:52:41;;;;;;;99.43;36.40;;;-0.40;99.90;;;;;;5032941;28;20017;-71
2022/12/09 02:55:08;;;;;;;97.80;34.58;;;-0.30;99.90;;;;;;5033161;28;20111;-71
2022/12/09 02:57:36;;;;;;;86.80;32.42;;;-0.30;99.90;;;;;;5033475;28;20100;-71
2022/12/09 03:00:04;;;;;;;81.53;33.88;;;-0.30;99.90;;;;;;5015347;28;20033;-71
2022/12/09 03:02:34;;;;;;;91.57;31.65;;;-0.40;99.90;;;;;;5015164;28;20052;-71
2022/12/09 03:05:23;;;;;;;94.38;33.50;;;-0.50;99.90;;;;;;5014716;28;20381;-71
2022/12/09 03:08:18;;;;;;;84.78;31.23;;;-0.50;99.90;;;;;;5033254;28;20026;-71
2022/12/09 03:11:08;;;;;;;104.35;31.17;;;-0.50;99.90;;;;;;5033022;28;20496;-71
2022/12/09 03:13:51;;;;;;;87.20;32.53;;;-0.50;99.90;;;;;;5032988;28;20032;-71
2022/12/09 03:16:35;;;;;;;86.18;32.85;;;-0.30;99.90;;;;;;5033285;28;20527;-71
2022/12/09 03:19:19;;;;;;;85.22;33.22;;;-0.20;99.90;;;;;;5033219;28;20025;-71
2022/12/09 03:21:46;;;;;;;90.78;35.75;;;-0.10;99.90;;;;;;5033417;28;20030;-71
2022/12/09 03:24:16;;;;;;;106.15;39.58;;;0.00;99.90;;;;;;5015294;28;20030;-71
2022/12/09 03:26:43;;;;;;;102.72;37.88;;;0.10;99.90;;;;;;5033378;28;20037;-71
2022/12/09 03:29:16;;;;;;;114.40;39.13;;;0.10;99.90;;;;;;5037012;28;20094;-71
2022/12/09 03:31:42;;;;;;;91.82;37.53;;;0.10;99.90;;;;;;5036208;28;20026;-71
2022/12/09 03:34:12;;;;;;;103.03;39.13;;;0.00;99.90;;;;;;5015722;28;20543;-71
2022/12/09 03:36:40;;;;;;;98.65;39.85;;;0.00;99.90;;;;;;5017022;28;20044;-71
2022/12/09 03:39:12;;;;;;;92.45;41.78;;;0.00;99.90;;;;;;5017190;28;20022;-71
2022/12/09 03:41:43;;;;;;;106.40;44.45;;;0.00;99.90;;;;;;5034984;28;20026;-71
2022/12/09 03:44:35;;;;;;;107.70;43.78;;;0.10;99.90;;;;;;5036112;28;20029;-70
2022/12/09 03:47:03;;;;;;;96.00;43.40;;;0.20;99.90;;;;;;5036647;28;20032;-71
2022/12/09 03:49:29;;;;;;;98.78;44.05;;;0.20;99.90;;;;;;5018326;28;20032;-71
2022/12/09 03:51:58;;;;;;;100.15;44.58;;;0.20;99.90;;;;;;5033818;28;20397;-71
2022/12/09 03:54:42;;;;;;;106.38;44.85;;;0.20;99.90;;;;;;5036448;28;20401;-71
2022/12/09 03:57:12;;;;;;;103.07;42.20;;;0.20;99.90;;;;;;5036655;28;20381;-71
2022/12/09 03:59:39;;;;;;;103.28;46.83;;;0.30;99.90;;;;;;5036827;28;20029;-71
2022/12/09 04:02:05;;;;;;;93.22;43.17;;;0.30;99.90;;;;;;5031590;28;20025;-71
2022/12/09 04:04:32;;;;;;;108.45;45.10;;;0.30;99.90;;;;;;5016524;28;20017;-71
2022/12/09 04:06:58;;;;;;;108.28;41.55;;;0.40;99.90;;;;;;5019000;28;20061;-70
2022/12/09 04:09:23;;;;;;;94.88;43.03;;;0.30;99.90;;;;;;5016194;28;20034;-71
2022/12/09 04:11:49;;;;;;;108.40;42.53;;;0.30;99.90;;;;;;5016452;28;20034;-71
2022/12/09 04:14:14;;;;;;;103.38;40.85;;;0.30;99.90;;;;;;4998027;28;20026;-71
2022/12/09 04:16:40;;;;;;;91.95;40.83;;;0.20;99.90;;;;;;5016526;28;20030;-71
2022/12/09 04:19:05;;;;;;;105.55;41.67;;;0.20;99.90;;;;;;5024514;28;20025;-71
2022/12/09 04:21:31;;;;;;;102.93;41.55;;;0.20;99.90;;;;;;5035823;28;20029;-71
2022/12/09 04:23:56;;;;;;;111.47;43.30;;;0.20;99.90;;;;;;5035392;28;20064;-71
2022/12/09 04:26:22;;;;;;;102.85;39.67;;;0.20;99.90;;;;;;5036038;28;20064;-71
2022/12/09 04:28:49;;;;;;;90.88;37.00;;;0.30;99.90;;;;;;5036093;28;20022;-71
2022/12/09 04:31:16;;;;;;;96.10;37.85;;;0.30;99.90;;;;;;5035188;28;20485;-70
2022/12/09 04:33:43;;;;;;;103.43;38.80;;;0.40;99.90;;;;;;5035776;28;20044;-71
2022/12/09 04:36:11;;;;;;;103.20;37.10;;;0.40;99.90;;;;;;5035533;28;20477;-71
2022/12/09 04:38:37;;;;;;;106.40;40.40;;;0.40;99.90;;;;;;5017138;28;20025;-71
2022/12/09 04:41:03;;;;;;;110.50;41.10;;;0.50;99.90;;;;;;5035389;28;20032;-71
2022/12/09 04:43:29;;;;;;;95.35;37.00;;;0.50;99.90;;;;;;5035868;28;20021;-71
2022/12/09 04:46:00;;;;;;;99.82;36.92;;;0.50;99.90;;;;;;5035014;28;20032;-71
2022/12/09 04:48:26;;;;;;;97.95;36.95;;;0.50;99.90;;;;;;5018162;28;20030;-71
2022/12/09 04:50:52;;;;;;;104.70;38.00;;;0.50;99.90;;;;;;5035484;28;20021;-72
2022/12/09 04:53:17;;;;;;;98.43;37.00;;;0.50;99.90;;;;;;5035612;28;20052;-71
2022/12/09 04:55:43;;;;;;;113.53;39.88;;;0.50;99.90;;;;;;5017604;28;20025;-71
2022/12/09 04:58:08;;;;;;;108.13;36.47;;;0.50;99.90;;;;;;5017030;28;20056;-71
2022/12/09 05:00:34;;;;;;;107.32;37.53;;;0.50;99.90;;;;;;5035238;28;20105;-71
2022/12/09 05:02:59;;;;;;;106.60;37.50;;;0.40;99.90;;;;;;5017472;28;20022;-71
2022/12/09 05:05:25;;;;;;;92.88;37.72;;;0.50;99.90;;;;;;5035322;28;20448;-71
2022/12/09 05:07:50;;;;;;;102.13;38.15;;;0.40;99.90;;;;;;5034620;28;20033;-71
2022/12/09 05:10:16;;;;;;;98.85;37.08;;;0.50;99.90;;;;;;5035231;28;20120;-71
2022/12/09 05:12:41;;;;;;;101.32;35.58;;;0.50;99.90;;;;;;5017301;28;20025;-71
2022/12/09 05:15:07;;;;;;;90.22;34.85;;;0.50;99.90;;;;;;5035013;28;20068;-71
2022/12/09 05:17:33;;;;;;;100.63;35.25;;;0.50;99.90;;;;;;5035461;28;20017;-71
2022/12/09 05:19:59;;;;;;;95.72;32.72;;;0.60;99.90;;;;;;5017064;28;20436;-71
2022/12/09 05:22:24;;;;;;;92.90;35.22;;;0.60;99.90;;;;;;5034337;28;20081;-71
2022/12/09 05:24:50;;;;;;;94.97;34.30;;;0.70;99.90;;;;;;5034851;28;20025;-71
2022/12/09 05:27:15;;;;;;;92.72;35.08;;;0.60;99.90;;;;;;5035029;28;20108;-71
2022/12/09 05:29:41;;;;;;;87.30;32.50;;;0.70;99.90;;;;;;5016762;28;20500;-71
2022/12/09 05:32:07;;;;;;;78.25;29.75;;;0.70;99.90;;;;;;5034618;28;20037;-71
2022/12/09 05:34:32;;;;;;;90.43;32.10;;;0.70;99.90;;;;;;5034803;28;20029;-71
2022/12/09 05:36:58;;;;;;;89.63;32.38;;;0.70;99.90;;;;;;5034032;28;20477;-71
2022/12/09 05:39:23;;;;;;;84.75;30.75;;;0.70;99.90;;;;;;5034556;28;20567;-71
2022/12/09 05:41:49;;;;;;;78.85;30.05;;;0.70;99.90;;;;;;5034798;28;20025;-71
2022/12/09 05:44:14;;;;;;;87.00;31.08;;;0.70;99.90;;;;;;5034858;28;20025;-71
2022/12/09 05:46:40;;;;;;;87.22;30.52;;;0.80;99.90;;;;;;5034336;28;20052;-71
2022/12/09 05:49:05;;;;;;;77.25;29.33;;;0.80;99.90;;;;;;5034265;28;20043;-71
2022/12/09 05:51:32;;;;;;;68.93;27.00;;;0.80;99.90;;;;;;5033570;28;20029;-71
2022/12/09 05:54:01;;;;;;;76.28;28.65;;;0.80;99.90;;;;;;5034236;28;20064;-71
2022/12/09 05:56:26;;;;;;;78.95;26.75;;;0.90;99.90;;;;;;5034215;28;20026;-71
2022/12/09 05:58:53;;;;;;;65.68;26.63;;;0.90;99.90;;;;;;5034383;28;20497;-71
2022/12/09 06:01:19;;;;;;;73.47;24.00;;;0.90;99.90;;;;;;5034028;28;20065;-71
2022/12/09 06:03:49;;;;;;;69.18;26.15;;;0.90;99.90;;;;;;5034052;28;20029;-69
2022/12/09 06:06:16;;;;;;;68.72;23.85;;;0.90;99.90;;;;;;5034114;28;20507;-71
2022/12/09 06:08:43;;;;;;;57.45;22.75;;;0.90;99.90;;;;;;5034079;28;20036;-71
2022/12/09 06:11:17;;;;;;;56.38;20.88;;;0.90;99.90;;;;;;5034091;28;20037;-71
2022/12/09 06:13:43;;;;;;;55.50;17.58;;;0.90;99.90;;;;;;5034106;28;20036;-71
2022/12/09 06:16:10;;;;;;;53.10;18.88;;;0.80;99.90;;;;;;5033724;28;20026;-71
2022/12/09 06:18:36;;;;;;;37.67;16.05;;;0.80;99.90;;;;;;5033784;28;20025;-71
2022/12/09 06:21:11;;;;;;;50.03;17.08;;;0.80;99.90;;;;;;5034049;28;20030;-71
2022/12/09 06:23:39;;;;;;;48.67;16.63;;;0.90;99.90;;;;;;5033644;28;20021;-71
2022/12/09 06:26:06;;;;;;;54.53;17.60;;;0.90;99.90;;;;;;5033132;28;20384;-71
2022/12/09 06:28:32;;;;;;;50.90;19.50;;;0.80;99.90;;;;;;5033751;28;20025;-71
2022/12/09 06:30:58;;;;;;;43.40;16.00;;;0.80;99.90;;;;;;5033581;28;20028;-71
2022/12/09 06:33:25;;;;;;;51.92;17.13;;;0.70;99.90;;;;;;5034011;28;20025;-71
2022/12/09 06:35:50;;;;;;;42.45;16.08;;;0.70;99.90;;;;;;5033542;28;20029;-71
2022/12/09 06:38:16;;;;;;;39.80;16.33;;;0.70;99.90;;;;;;5033098;28;20584;-71
2022/12/09 06:40:42;;;;;;;43.75;16.92;;;0.70;99.90;;;;;;5033486;28;20388;-71
2022/12/09 06:43:08;;;;;;;60.70;17.83;;;0.70;99.90;;;;;;5033795;28;20025;-71
2022/12/09 06:45:35;;;;;;;56.58;18.38;;;0.70;99.90;;;;;;5033825;28;20036;-71
2022/12/09 06:48:01;;;;;;;49.53;17.70;;;0.70;99.90;;;;;;5033546;28;20029;-71
2022/12/09 06:50:27;;;;;;;52.45;16.70;;;0.70;99.90;;;;;;5033433;28;20389;-71
2022/12/09 06:52:52;;;;;;;55.05;16.80;;;0.70;99.90;;;;;;5015216;28;20025;-71
2022/12/09 06:55:18;;;;;;;44.20;15.57;;;0.80;99.90;;;;;;5033671;28;20108;-71
2022/12/09 06:57:43;;;;;;;42.05;15.70;;;0.80;99.90;;;;;;5033444;28;20029;-71
2022/12/09 07:00:09;;;;;;;44.83;15.65;;;0.80;99.90;;;;;;5034759;28;20093;-72
2022/12/09 07:02:35;;;;;;;35.47;14.70;;;0.80;99.90;;;;;;5039643;28;20053;-72
2022/12/09 07:05:00;;;;;;;48.72;16.70;;;0.80;99.90;;;;;;5040236;28;20484;-72
2022/12/09 07:07:26;;;;;;;54.65;16.13;;;0.80;99.90;;;;;;5040044;28;20040;-72
2022/12/09 07:09:51;;;;;;;36.13;14.90;;;0.80;99.90;;;;;;5040176;28;20041;-72
2022/12/09 07:12:17;;;;;;;45.92;16.58;;;0.80;99.90;;;;;;5040043;28;20067;-72
2022/12/09 07:14:43;;;;;;;39.75;15.52;;;0.80;99.90;;;;;;5039543;28;20025;-72
2022/12/09 07:17:15;;;;;;;39.92;14.73;;;0.80;99.90;;;;;;5039998;28;20022;-73
2022/12/09 07:19:40;;;;;;;41.13;14.52;;;0.80;99.90;;;;;;5022690;28;20039;-72
2022/12/09 07:22:06;;;;;;;38.05;14.77;;;0.80;99.90;;;;;;5039920;28;20017;-72
2022/12/09 07:24:31;;;;;;;33.95;14.05;;;0.90;99.90;;;;;;5039460;28;20025;-72
2022/12/09 07:26:57;;;;;;;38.58;14.95;;;0.80;99.90;;;;;;5039988;28;20432;-72
2022/12/09 07:29:22;;;;;;;29.35;14.15;;;0.90;99.90;;;;;;5021920;28;20021;-72
2022/12/09 07:31:48;;;;;;;29.55;13.23;;;0.80;99.90;;;;;;5039746;28;20488;-72
2022/12/09 07:34:14;;;;;;;30.50;13.75;;;0.80;99.90;;;;;;5039106;28;20080;-72
2022/12/09 07:36:40;;;;;;;45.38;14.90;;;0.80;99.90;;;;;;5039900;28;20033;-71
2022/12/09 07:39:09;;;;;;;36.90;13.65;;;0.70;99.90;;;;;;5039469;28;20424;-71
2022/12/09 07:41:34;;;;;;;36.17;14.40;;;0.80;99.90;;;;;;5024097;28;20034;-70
2022/12/09 07:44:00;;;;;;;42.75;14.98;;;0.80;99.90;;;;;;5030345;28;20075;-70
2022/12/09 07:46:28;;;;;;;44.70;14.63;;;0.80;99.90;;;;;;5038144;28;20041;-70
2022/12/09 07:48:54;;;;;;;39.45;15.02;;;0.80;99.90;;;;;;5032363;28;20025;-71
2022/12/09 07:51:21;;;;;;;40.83;15.52;;;0.80;99.90;;;;;;5033030;28;20021;-70
2022/12/09 07:53:48;;;;;;;47.60;15.23;;;0.80;99.90;;;;;;5039570;28;20030;-70
2022/12/09 07:56:15;;;;;;;42.55;15.60;;;0.80;99.90;;;;;;5039427;28;20392;-71
2022/12/09 07:58:42;;;;;;;39.95;13.90;;;0.80;99.90;;;;;;5021740;28;20392;-70
2022/12/09 08:01:13;;;;;;;42.25;15.95;;;0.80;99.90;;;;;;5039523;28;20021;-71
2022/12/09 08:03:39;;;;;;;42.70;16.60;;;0.80;99.90;;;;;;5039556;28;20091;-70
2022/12/09 08:06:05;;;;;;;43.90;18.08;;;0.90;99.90;;;;;;5038719;28;20476;-70
2022/12/09 08:08:31;;;;;;;43.85;19.45;;;0.90;99.90;;;;;;5039061;28;20491;-70
2022/12/09 08:11:06;;;;;;;51.05;20.80;;;0.90;99.90;;;;;;5071492;22;20365;-69
2022/12/09 08:13:31;;;;;;;62.13;22.17;;;0.90;99.90;;;;;;5054759;28;20027;-69
2022/12/09 08:16:01;;;;;;;64.45;23.05;;;0.90;99.90;;;;;;5055919;28;20037;-68
2022/12/09 08:18:27;;;;;;;65.00;23.85;;;0.80;99.90;;;;;;5055575;28;20484;-69
2022/12/09 08:20:52;;;;;;;68.32;24.98;;;0.90;99.90;;;;;;5038019;28;20046;-68
2022/12/09 08:23:18;;;;;;;75.22;25.42;;;0.90;99.90;;;;;;5055954;28;20071;-69
2022/12/09 08:25:43;;;;;;;74.85;25.95;;;0.80;99.90;;;;;;5037891;28;20028;-68
2022/12/09 08:28:09;;;;;;;71.18;27.10;;;0.80;99.90;;;;;;5055748;28;20051;-68
2022/12/09 08:30:35;;;;;;;73.53;27.58;;;0.90;99.90;;;;;;5055697;28;20518;-69
2022/12/09 08:33:01;;;;;;;64.55;26.10;;;0.90;99.90;;;;;;5055059;28;20024;-69
2022/12/09 08:35:28;;;;;;;59.13;24.08;;;0.80;99.90;;;;;;5055372;28;20033;-69
2022/12/09 08:37:54;;;;;;;66.95;28.27;;;0.90;99.90;;;;;;5055592;28;20028;-68
2022/12/09 08:40:19;;;;;;;71.18;27.85;;;0.80;99.90;;;;;;5055863;28;20021;-68
2022/12/09 08:42:45;;;;;;;70.82;26.40;;;0.80;99.90;;;;;;5055042;28;20044;-68
2022/12/09 08:45:12;;;;;;;55.97;24.10;;;0.80;99.90;;;;;;5055080;28;20397;-69
2022/12/09 08:47:38;;;;;;;66.93;26.85;;;0.80;99.90;;;;;;5055331;28;20087;-68
2022/12/09 08:50:04;;;;;;;60.72;25.90;;;0.90;99.90;;;;;;5055212;28;20029;-69
2022/12/09 08:52:30;;;;;;;66.03;27.30;;;0.90;99.90;;;;;;5031770;28;20492;-69
2022/12/09 08:54:55;;;;;;;66.05;28.85;;;0.90;99.90;;;;;;5035742;28;20079;-68
2022/12/09 08:57:23;;;;;;;66.75;28.08;;;0.90;99.90;;;;;;5042528;28;20017;-69
2022/12/09 08:59:48;;;;;;;63.10;28.10;;;0.90;99.90;;;;;;5054746;28;20017;-69
2022/12/09 09:02:14;;;;;;;71.50;31.83;;;0.90;99.90;;;;;;5055568;28;20025;-68
2022/12/09 09:04:39;;;;;;;77.75;29.95;;;1.00;99.90;;;;;;5054969;28;20037;-68
2022/12/09 09:07:05;;;;;;;71.82;30.27;;;1.00;99.90;;;;;;5054914;28;20055;-68
2022/12/09 09:09:30;;;;;;;76.20;31.33;;;1.00;99.90;;;;;;5053787;28;20025;-69
2022/12/09 09:11:56;;;;;;;71.95;30.05;;;0.90;99.90;;;;;;5054321;28;20051;-68
2022/12/09 09:14:21;;;;;;;71.93;31.10;;;0.90;99.90;;;;;;5054712;28;20025;-69
2022/12/09 09:16:47;;;;;;;66.82;28.17;;;0.90;99.90;;;;;;5054954;28;20025;-68
2022/12/09 09:19:20;;;;;;;61.72;29.50;;;1.00;99.90;;;;;;5054711;28;20037;-68
2022/12/09 09:21:48;;;;;;;74.28;29.90;;;1.00;99.90;;;;;;5046682;28;20029;-69
2022/12/09 09:24:16;;;;;;;54.80;26.73;;;1.00;99.90;;;;;;5033898;28;20044;-69
2022/12/09 09:26:43;;;;;;;65.30;29.52;;;0.90;99.90;;;;;;5036785;28;20021;-69
2022/12/09 09:29:10;;;;;;;75.80;30.85;;;0.90;99.90;;;;;;5034842;28;20025;-68
2022/12/09 09:31:36;;;;;;;57.95;29.83;;;1.00;99.90;;;;;;5033918;28;20030;-69
2022/12/09 09:34:02;;;;;;;75.45;30.20;;;1.00;99.90;;;;;;5036225;28;20036;-69
2022/12/09 09:36:27;;;;;;;65.13;29.75;;;1.00;99.90;;;;;;5054352;28;20029;-69
2022/12/09 09:38:53;;;;;;;67.13;28.45;;;1.00;99.90;;;;;;5054864;28;20112;-68
2022/12/09 09:41:55;;;;;;;63.17;27.00;;;1.00;99.90;;;;;;5053919;28;20376;-69
2022/12/09 09:44:41;;;;;;;61.40;27.30;;;1.00;99.90;;;;;;5054100;28;20029;-69
2022/12/09 09:47:32;;;;;;;63.03;27.67;;;1.10;99.90;;;;;;5054460;28;20083;-68
2022/12/09 09:50:05;;;;;;;58.90;26.27;;;1.10;99.90;;;;;;5053863;28;20067;-69
2022/12/09 09:52:33;;;;;;;67.15;29.25;;;1.10;99.90;;;;;;5054345;28;20044;-68
2022/12/09 09:55:14;;;;;;;62.28;28.75;;;1.20;99.90;;;;;;5053954;28;20455;-68
2022/12/09 09:58:09;;;;;;;68.20;28.90;;;1.30;99.90;;;;;;5053802;28;20025;-69
2022/12/09 10:00:45;;;;;;;70.35;30.55;;;1.40;99.90;;;;;;5054136;28;20025;-68
2022/12/09 10:03:21;;;;;;;52.92;27.70;;;1.50;99.90;;;;;;5053867;28;20099;-68
2022/12/09 10:05:53;;;;;;;77.03;27.90;;;1.60;99.90;;;;;;5053461;28;20159;-69
2022/12/09 10:08:43;;;;;;;65.22;29.55;;;1.60;99.90;;;;;;5054009;28;20032;-68
2022/12/09 10:11:09;;;;;;;55.53;26.88;;;1.50;99.90;;;;;;5053262;28;20040;-68
2022/12/09 10:13:56;;;;;;;56.35;26.83;;;1.50;99.90;;;;;;5052903;28;20464;-67
2022/12/09 10:16:28;;;;;;;56.75;27.02;;;1.60;99.90;;;;;;5052950;28;20103;-67
2022/12/09 10:19:02;;;;;;;59.65;28.27;;;1.60;99.90;;;;;;5050123;28;20029;-68
2022/12/09 10:21:30;;;;;;;52.65;26.80;;;1.60;99.90;;;;;;5052922;28;20058;-68
2022/12/09 10:24:01;;;;;;;53.92;27.75;;;1.60;99.90;;;;;;5044167;28;20029;-68
2022/12/09 10:26:30;;;;;;;54.65;23.70;;;1.70;99.90;;;;;;5033137;28;20064;-68
2022/12/09 10:29:12;;;;;;;52.42;25.40;;;1.70;99.90;;;;;;5037649;28;20021;-68
2022/12/09 10:31:37;;;;;;;63.22;25.45;;;1.70;99.90;;;;;;5053109;28;20025;-68
2022/12/09 10:34:03;;;;;;;60.80;24.92;;;1.80;99.90;;;;;;5052489;28;20491;-68
2022/12/09 10:36:30;;;;;;;46.72;24.48;;;1.80;99.90;;;;;;5032344;28;20030;-68
2022/12/09 10:38:56;;;;;;;63.50;25.50;;;1.80;99.90;;;;;;5033162;28;20044;-68
2022/12/09 10:44:20;;;;;;;51.70;25.58;;;1.90;99.90;;;;;;5032575;28;20033;-68
2022/12/09 10:46:46;;;;;;;54.70;24.90;;;1.90;99.90;;;;;;5032333;28;20034;-69
2022/12/09 10:49:19;;;;;;;56.15;25.63;;;1.90;99.90;;;;;;5032710;28;20108;-68
2022/12/09 10:51:50;;;;;;;52.63;26.45;;;1.90;99.90;;;;;;5032394;28;20025;-68
2022/12/09 10:54:28;;;;;;;54.10;23.75;;;1.90;99.90;;;;;;5032317;28;20056;-68
2022/12/09 10:57:28;;;;;;;43.63;24.17;;;1.90;99.90;;;;;;5032098;28;20061;-69
2022/12/09 11:00:01;;;;;;;56.53;25.50;;;2.00;99.90;;;;;;5032358;28;20022;-68
2022/12/09 11:02:28;;;;;;;59.75;26.10;;;2.00;99.90;;;;;;5014580;28;20108;-68
2022/12/09 11:04:53;;;;;;;53.35;26.55;;;1.90;99.90;;;;;;5032282;28;20029;-68
2022/12/09 11:07:26;;;;;;;59.13;25.92;;;2.00;99.90;;;;;;5031677;28;20079;-69
2022/12/09 11:09:54;;;;;;;47.15;22.80;;;2.00;99.90;;;;;;4992915;28;1137908;-68
2022/12/09 11:12:26;;;;;;;56.58;27.05;;;2.00;99.90;;;;;;5033028;28;20025;-68
2022/12/09 11:15:00;;;;;;;47.58;26.33;;;2.00;99.90;;;;;;5032903;28;20030;-68
2022/12/09 11:17:29;;;;;;;48.40;25.45;;;2.00;99.90;;;;;;5032565;28;20024;-68
2022/12/09 11:20:15;;;;;;;53.55;26.42;;;2.10;99.90;;;;;;5033109;28;20017;-68
2022/12/09 11:22:43;;;;;;;48.25;25.38;;;2.20;99.90;;;;;;5032934;28;20473;-68
2022/12/09 11:25:20;;;;;;;49.92;26.63;;;2.30;99.90;;;;;;5032337;28;20036;-68
2022/12/09 11:27:58;;;;;;;57.45;26.50;;;2.50;99.90;;;;;;5033024;28;20392;-68
2022/12/09 11:30:33;;;;;;;45.40;23.98;;;2.50;99.90;;;;;;5033150;28;20419;-68
2022/12/09 11:33:15;;;;;;;45.70;23.65;;;2.50;99.90;;;;;;5033140;28;20033;-68
2022/12/09 11:35:43;;;;;;;48.60;23.60;;;2.40;99.90;;;;;;5033042;28;20051;-68
2022/12/09 11:38:29;;;;;;;46.58;26.70;;;2.20;99.90;;;;;;5032290;28;20025;-68
2022/12/09 11:42:12;;;;;;;48.67;24.90;;;2.10;99.90;;;;;;5032830;28;20028;-68
2022/12/09 11:44:00;;;;;;;43.50;22.85;;;2.10;99.90;;;;;;5032633;28;20030;-68
2022/12/09 11:46:29;;;;;;;54.92;24.23;;;2.10;99.90;;;;;;5032968;28;20040;-68
2022/12/09 11:49:20;;;;;;;46.67;24.38;;;2.10;99.90;;;;;;5036494;28;20025;-68
2022/12/09 11:52:00;;;;;;;48.60;23.38;;;2.10;99.90;;;;;;5036084;28;20515;-68
2022/12/09 11:54:44;;;;;;;54.50;24.42;;;2.10;99.90;;;;;;5036205;28;20029;-68
2022/12/09 11:57:35;;;;;;;46.72;23.35;;;2.10;99.90;;;;;;5036626;28;20045;-68
2022/12/09 12:00:05;;;;;;;56.90;24.52;;;2.10;99.90;;;;;;5036276;28;20034;-68
2022/12/09 12:02:39;;;;;;;44.20;22.58;;;2.10;99.90;;;;;;5036169;28;20045;-68
2022/12/09 12:05:18;;;;;;;52.05;25.42;;;2.00;99.90;;;;;;5036642;28;20040;-68
2022/12/09 12:08:02;;;;;;;44.58;24.05;;;2.00;99.90;;;;;;5036287;28;20493;-68
2022/12/09 12:10:30;;;;;;;;;;;2.00;99.90;;;;;;5035926;28;20504;-68
2022/12/09 12:13:11;;;;;;;55.03;25.33;;;1.90;99.90;;;;;;5036061;28;19912;-68
2022/12/09 12:15:45;;;;;;;49.90;24.92;;;2.00;99.90;;;;;;5036579;28;20056;-68
2022/12/09 12:18:18;;;;;;;45.45;23.80;;;2.00;99.90;;;;;;5036233;28;20465;-68
2022/12/09 12:21:02;;;;;;;57.38;27.23;;;2.00;99.90;;;;;;5035861;28;20057;-68
2022/12/09 12:23:43;;;;;;;46.25;24.25;;;2.10;99.90;;;;;;5036429;28;20036;-68
2022/12/09 12:26:36;;;;;;;52.80;26.02;;;2.20;99.90;;;;;;5036043;28;20049;-68
2022/12/09 12:29:26;;;;;;;50.75;24.95;;;2.20;99.90;;;;;;5036052;28;20064;-67
2022/12/09 12:32:17;;;;;;;58.08;26.98;;;2.30;99.90;;;;;;5035046;28;20032;-68
2022/12/09 12:34:48;;;;;;;48.83;24.38;;;2.40;99.90;;;;;;5035860;28;20025;-68
2022/12/09 12:37:34;;;;;;;51.70;24.27;;;2.50;99.90;;;;;;5036382;28;20372;-67
2022/12/09 12:40:09;;;;;;;49.97;25.10;;;2.50;99.90;;;;;;5004221;28;20049;-68
2022/12/09 12:49:03;;;;;;;53.53;23.70;;;2.50;99.90;;;;;;5035436;28;20519;-68
2022/12/09 12:52:17;;;;;;;55.38;24.55;;;2.60;99.90;;;;;;5035544;28;20396;-68
2022/12/09 12:54:58;;;;;;;49.45;23.80;;;2.80;99.90;;;;;;4981072;28;20073;-68
2022/12/09 12:57:51;;;;;;;45.30;24.38;;;2.90;99.90;;;;;;5035207;28;20022;-68